Terminal Aerodrome Forecast
Issued by NWS Knoxville/Tri Cities, TN

Home | Current Version | Previous Version | Text Only | Print | Product List | Glossary On
Versions: 1 2 3 4 5 6 7 8 9 10 11 12 13 14 15 16 17 18 19 20 21 22 23 24 25 26 27 28 29 30 31 32 33 34 35 36
000
FTUS44 KMRX 101727
TAFTRI
TAF
KTRI 101727Z 1018/1118 VRB04KT P6SM SCT027 BKN070
     FM102000 31005KT P6SM SCT060
     FM110200 00000KT P6SM BKN200
     FM110800 00000KT 4SM BR FEW020 BKN200
     FM111400 29005KT P6SM SCT050=

USA.gov is the U.S. government's official web portal to all federal, state and local government web resources and services.